createdAt,value
2022-11-20T00:02:00.976Z,13.67
2022-11-20T00:04:29.780Z,13.78
2022-11-20T00:06:58.565Z,14.59
2022-11-20T00:09:27.176Z,14.81
2022-11-20T00:12:09.030Z,14.92
2022-11-20T00:14:40.901Z,15.32
2022-11-20T00:17:21.395Z,15.12
2022-11-20T00:20:10.174Z,15.02
2022-11-20T00:22:38.861Z,14.87
2022-11-20T00:25:19.220Z,14.76
2022-11-20T00:27:55.711Z,14.70
2022-11-20T00:30:24.653Z,14.59
2022-11-20T00:32:57.062Z,14.74
2022-11-20T00:35:26.393Z,14.94
2022-11-20T00:37:59.584Z,15.09
2022-11-20T00:40:28.251Z,15.55
2022-11-20T00:43:01.959Z,15.95
2022-11-20T00:45:32.373Z,15.80
2022-11-20T00:48:01.175Z,15.65
2022-11-20T00:50:37.743Z,15.86
2022-11-20T00:53:09.179Z,15.78
2022-11-20T00:55:37.776Z,16.21
2022-11-20T00:58:10.286Z,16.37
2022-11-20T01:00:39.763Z,16.56
2022-11-20T01:03:08.262Z,16.44
2022-11-20T01:05:37.601Z,16.80
2022-11-20T01:08:06.538Z,16.95
2022-11-20T01:10:35.126Z,16.79
2022-11-20T01:13:25.515Z,16.66
2022-11-20T01:15:51.776Z,16.77
2022-11-20T01:18:23.579Z,16.79
2022-11-20T01:20:52.173Z,16.75
2022-11-20T01:23:20.784Z,16.61
2022-11-20T01:25:49.322Z,16.79
2022-11-20T01:28:18.208Z,16.96
2022-11-20T01:31:00.686Z,16.91
2022-11-20T01:33:26.862Z,17.13
2022-11-20T01:35:57.911Z,17.35
2022-11-20T01:38:26.611Z,17.53
2022-11-20T01:40:58.409Z,17.35
2022-11-20T01:43:27.642Z,17.20
2022-11-20T01:46:05.021Z,16.82
2022-11-20T01:48:48.955Z,16.71
2022-11-20T01:51:23.178Z,16.77
2022-11-20T01:53:54.360Z,16.59
2022-11-20T01:56:23.816Z,16.48
2022-11-20T01:58:55.403Z,16.30
2022-11-20T02:01:30.256Z,16.38
2022-11-20T02:04:03.510Z,16.52
2022-11-20T02:06:51.815Z,16.42
2022-11-20T02:09:20.853Z,16.54
2022-11-20T02:11:49.849Z,16.49
2022-11-20T02:14:20.035Z,16.61
2022-11-20T02:16:50.611Z,16.81
2022-11-20T02:19:28.205Z,17.05
2022-11-20T02:22:02.519Z,16.94
2022-11-20T02:24:31.528Z,16.88
2022-11-20T02:27:06.085Z,16.84
2022-11-20T02:29:46.703Z,16.87
2022-11-20T02:32:32.912Z,16.75
2022-11-20T02:35:10.395Z,16.93
2022-11-20T02:37:41.853Z,17.12
2022-11-20T02:40:11.503Z,17.30
2022-11-20T02:42:40.299Z,17.15
2022-11-20T02:45:09.537Z,17.12
2022-11-20T02:47:38.193Z,17.09
2022-11-20T02:50:08.422Z,16.96
2022-11-20T02:52:37.047Z,16.86
2022-11-20T02:55:06.246Z,17.00
2022-11-20T02:57:34.921Z,17.06
2022-11-20T03:00:04.977Z,16.88
2022-11-20T03:02:34.559Z,17.15
2022-11-20T03:05:03.182Z,17.36
2022-11-20T03:07:31.982Z,17.22
2022-11-20T03:10:00.838Z,17.19
2022-11-20T03:12:29.463Z,17.14
2022-11-20T03:14:58.008Z,17.16
2022-11-20T03:17:27.246Z,17.26
2022-11-20T03:19:56.020Z,17.22
2022-11-20T03:22:33.400Z,17.40
2022-11-20T03:25:01.960Z,16.91
2022-11-20T03:27:37.669Z,17.21
2022-11-20T03:30:07.061Z,17.05
2022-11-20T03:32:35.668Z,17.07
2022-11-20T03:35:04.390Z,17.01
2022-11-20T03:37:33.461Z,16.94
2022-11-20T03:40:02.017Z,16.99
2022-11-20T03:42:48.965Z,16.96
2022-11-20T03:45:19.719Z,16.90
2022-11-20T03:47:56.491Z,17.09
2022-11-20T03:50:25.076Z,17.04
2022-11-20T03:52:53.740Z,17.07
2022-11-20T03:55:26.029Z,17.14
2022-11-20T03:57:54.829Z,17.13
2022-11-20T04:00:26.764Z,17.16
2022-11-20T04:02:55.770Z,17.15
2022-11-20T04:05:24.700Z,16.93
2022-11-20T04:07:58.233Z,16.87
2022-11-20T04:10:27.176Z,16.75
2022-11-20T04:13:08.028Z,16.68
2022-11-20T04:15:38.506Z,16.72
2022-11-20T04:18:10.555Z,16.81
2022-11-20T04:20:46.269Z,16.73
2022-11-20T04:23:15.206Z,16.75
2022-11-20T04:25:45.604Z,16.66
2022-11-20T04:28:14.513Z,16.44
2022-11-20T04:30:43.160Z,16.57
2022-11-20T04:33:17.272Z,16.61
2022-11-20T04:35:50.486Z,16.62
2022-11-20T04:38:23.548Z,16.35
2022-11-20T04:40:59.202Z,16.76
2022-11-20T04:43:28.261Z,16.81
2022-11-20T04:45:58.307Z,16.76
2022-11-20T04:48:28.298Z,16.63
2022-11-20T04:51:09.234Z,16.63
2022-11-20T04:53:37.997Z,16.70
2022-11-20T04:56:10.984Z,16.56
2022-11-20T04:58:39.990Z,16.75
2022-11-20T05:01:11.717Z,16.84
2022-11-20T05:03:42.595Z,16.75
2022-11-20T05:06:13.707Z,16.71
2022-11-20T05:08:46.623Z,16.73
2022-11-20T05:11:22.096Z,16.78
2022-11-20T05:13:54.002Z,16.66
2022-11-20T05:16:25.311Z,16.63
2022-11-20T05:18:56.676Z,16.79
2022-11-20T05:21:25.342Z,16.84
2022-11-20T05:23:53.896Z,16.75
2022-11-20T05:26:26.807Z,16.76
2022-11-20T05:29:01.550Z,16.77
2022-11-20T05:31:28.340Z,16.68
2022-11-20T05:33:58.906Z,16.55
2022-11-20T05:36:27.718Z,16.51
2022-11-20T05:39:01.224Z,16.48
2022-11-20T05:41:29.233Z,16.40
2022-11-20T05:43:59.484Z,16.49
2022-11-20T05:46:29.313Z,16.39
2022-11-20T05:49:01.348Z,16.33
2022-11-20T05:51:31.600Z,16.19
2022-11-20T05:54:00.308Z,16.21
2022-11-20T05:56:28.877Z,16.20
2022-11-20T05:58:58.051Z,16.14
2022-11-20T06:01:28.668Z,16.12
2022-11-20T06:03:58.910Z,16.20
2022-11-20T06:06:27.539Z,16.24
2022-11-20T06:09:00.019Z,16.32
2022-11-20T06:11:29.000Z,16.32
2022-11-20T06:13:57.527Z,16.22
2022-11-20T06:16:28.191Z,16.23
2022-11-20T06:18:59.120Z,16.35
2022-11-20T06:21:29.162Z,16.41
2022-11-20T06:23:57.797Z,16.44
2022-11-20T06:26:28.783Z,16.41
2022-11-20T06:29:00.273Z,16.38
2022-11-20T06:31:29.420Z,16.39
2022-11-20T06:33:58.661Z,16.50
2022-11-20T06:36:27.229Z,16.54
2022-11-20T06:39:05.643Z,16.57
2022-11-20T06:41:55.720Z,16.58
2022-11-20T06:44:20.402Z,16.55
2022-11-20T06:50:14.184Z,16.63
2022-11-20T06:55:51.542Z,16.62
2022-11-20T06:58:29.533Z,16.79
2022-11-20T07:01:32.741Z,16.85
2022-11-20T07:07:36.531Z,16.83
2022-11-20T07:20:21.875Z,16.77
2022-11-20T07:29:39.977Z,16.54
2022-11-20T07:32:13.013Z,16.62
2022-11-20T07:48:17.264Z,16.65
2022-11-20T07:50:55.706Z,16.68
2022-11-20T07:53:31.823Z,16.64
2022-11-20T07:58:57.707Z,16.66
2022-11-20T08:01:35.606Z,16.72
2022-11-20T08:04:16.663Z,16.70
2022-11-20T08:06:50.945Z,16.55
2022-11-20T08:09:33.737Z,16.70
2022-11-20T08:12:28.234Z,16.65
2022-11-20T08:20:48.048Z,16.50
2022-11-20T08:23:21.152Z,16.71
2022-11-20T08:25:57.756Z,16.62
2022-11-20T08:28:40.182Z,16.73
2022-11-20T08:32:10.217Z,16.82
2022-11-20T08:34:06.324Z,16.79
2022-11-20T08:36:44.744Z,16.87
2022-11-20T08:39:18.555Z,16.31
2022-11-20T08:47:43.798Z,16.61
2022-11-20T09:00:05.606Z,16.75
2022-11-20T09:08:39.855Z,17.07
2022-11-20T09:19:35.820Z,17.46
2022-11-20T09:24:54.975Z,16.78
2022-11-20T09:27:44.978Z,16.30
2022-11-20T09:30:21.427Z,16.25
2022-11-20T09:32:53.410Z,15.83
2022-11-20T09:35:24.322Z,15.90
2022-11-20T09:38:06.877Z,15.87
2022-11-20T09:40:39.751Z,15.71
2022-11-20T09:43:23.640Z,16.16
2022-11-20T09:46:19.638Z,16.29
2022-11-20T09:49:07.028Z,16.33
2022-11-20T09:51:52.881Z,16.55
2022-11-20T09:55:09.342Z,16.50
2022-11-20T09:57:46.093Z,16.46
2022-11-20T10:00:24.112Z,16.36
2022-11-20T10:03:21.763Z,16.25
2022-11-20T10:05:57.948Z,16.39
2022-11-20T10:08:35.761Z,16.44
2022-11-20T10:11:25.684Z,16.43
2022-11-20T10:27:44.523Z,15.80
2022-11-20T10:34:11.468Z,15.57
2022-11-20T11:07:59.531Z,15.84
2022-11-20T11:11:04.654Z,15.65
2022-11-20T11:13:33.862Z,14.94
2022-11-20T11:16:02.509Z,14.32
2022-11-20T11:18:33.346Z,13.56
2022-11-20T11:21:04.299Z,13.56
2022-11-20T11:23:37.245Z,13.52
2022-11-20T11:26:23.970Z,13.57
2022-11-20T11:29:04.215Z,13.50
2022-11-20T11:31:35.503Z,13.47
2022-11-20T11:34:16.456Z,13.53
2022-11-20T11:36:46.942Z,13.43
2022-11-20T11:39:19.983Z,13.38
2022-11-20T11:41:50.399Z,13.44
2022-11-20T11:44:43.014Z,13.27
2022-11-20T11:47:14.582Z,13.29
2022-11-20T11:49:43.299Z,13.32
2022-11-20T11:52:21.105Z,13.41
2022-11-20T11:55:10.111Z,13.44
2022-11-20T11:57:52.927Z,13.00
2022-11-20T12:00:24.141Z,13.55
2022-11-20T12:03:18.650Z,13.51
2022-11-20T12:05:54.650Z,13.52
2022-11-20T12:08:29.325Z,13.59
2022-11-20T12:11:09.818Z,13.70
2022-11-20T12:14:01.846Z,13.91
2022-11-20T12:16:32.594Z,13.97
2022-11-20T12:19:01.449Z,13.95
2022-11-20T12:21:58.554Z,13.93
2022-11-20T12:24:54.873Z,13.98
2022-11-20T12:27:46.748Z,13.95
2022-11-20T12:30:17.508Z,13.88
2022-11-20T12:33:05.590Z,13.54
2022-11-20T12:35:46.688Z,13.65
2022-11-20T12:38:18.366Z,13.23
2022-11-20T12:41:23.483Z,13.60
2022-11-20T12:44:21.841Z,13.63
2022-11-20T12:46:53.539Z,13.59
2022-11-20T12:49:30.913Z,13.58
2022-11-20T12:52:34.156Z,13.48
2022-11-20T12:55:07.387Z,13.52
2022-11-20T12:57:41.882Z,13.45
2022-11-20T13:00:19.740Z,13.36
2022-11-20T13:03:20.289Z,13.26
2022-11-20T13:06:13.238Z,13.22
2022-11-20T13:09:03.955Z,13.10
2022-11-20T13:11:38.548Z,13.04
2022-11-20T13:14:18.113Z,13.01
2022-11-20T13:17:12.385Z,12.92
2022-11-20T13:19:41.968Z,12.86
2022-11-20T13:22:11.509Z,12.66
2022-11-20T13:24:40.245Z,12.76
2022-11-20T13:27:15.049Z,12.65
2022-11-20T13:29:48.037Z,12.75
2022-11-20T13:32:19.695Z,12.60
2022-11-20T13:34:59.856Z,12.53
2022-11-20T13:37:31.772Z,12.63
2022-11-20T13:40:14.894Z,12.78
2022-11-20T13:42:58.907Z,12.85
2022-11-20T13:45:33.175Z,12.87
2022-11-20T13:48:07.727Z,12.93
2022-11-20T13:50:47.767Z,12.98
2022-11-20T13:53:45.152Z,13.13
2022-11-20T13:56:48.067Z,12.96
2022-11-20T13:59:39.312Z,13.14
2022-11-20T14:02:13.751Z,13.00
2022-11-20T14:04:51.444Z,12.91
2022-11-20T14:07:26.126Z,13.21
2022-11-20T14:09:57.348Z,12.70
2022-11-20T14:12:34.389Z,13.03
2022-11-20T14:15:05.817Z,13.12
2022-11-20T14:17:37.446Z,13.12
2022-11-20T14:20:14.891Z,13.15
2022-11-20T14:22:47.985Z,13.19
2022-11-20T14:25:23.992Z,13.03
2022-11-20T14:27:55.628Z,13.11
2022-11-20T14:30:31.569Z,13.15
2022-11-20T14:33:03.293Z,13.05
2022-11-20T14:35:34.617Z,13.25
2022-11-20T14:38:04.722Z,13.31
2022-11-20T14:40:38.745Z,13.46
2022-11-20T14:43:22.608Z,13.58
2022-11-20T14:45:54.178Z,13.63
2022-11-20T14:48:31.489Z,13.56
2022-11-20T14:51:00.146Z,13.45
2022-11-20T14:53:28.677Z,13.51
2022-11-20T14:56:02.382Z,13.50
2022-11-20T14:58:34.382Z,13.52
2022-11-20T15:01:15.431Z,13.52
2022-11-20T15:03:43.934Z,13.49
2022-11-20T15:06:14.341Z,13.34
2022-11-20T15:08:46.403Z,13.08
2022-11-20T15:11:23.280Z,13.00
2022-11-20T15:13:52.436Z,13.03
2022-11-20T15:16:24.867Z,13.22
2022-11-20T15:18:53.574Z,13.08
2022-11-20T15:21:24.093Z,12.96
2022-11-20T15:23:54.555Z,12.82
2022-11-20T15:26:29.821Z,12.72
2022-11-20T15:28:58.523Z,12.60
2022-11-20T15:31:30.991Z,12.60
2022-11-20T15:34:02.822Z,12.43
2022-11-20T15:36:31.330Z,12.41
2022-11-20T15:38:59.863Z,12.41
2022-11-20T15:41:28.479Z,12.41
2022-11-20T15:43:57.032Z,12.35
2022-11-20T15:46:28.887Z,12.30
2022-11-20T15:49:00.865Z,12.32
2022-11-20T15:51:38.198Z,12.17
2022-11-20T15:54:18.362Z,11.78
2022-11-20T15:56:48.335Z,11.35
2022-11-20T15:59:17.232Z,10.92
2022-11-20T16:01:47.635Z,10.67
2022-11-20T16:04:20.716Z,10.66
2022-11-20T16:06:58.585Z,10.62
2022-11-20T16:09:27.254Z,10.50
2022-11-20T16:11:55.886Z,10.60
2022-11-20T16:14:42.388Z,10.63
2022-11-20T16:17:11.043Z,10.69
2022-11-20T16:19:39.631Z,10.63
2022-11-20T16:22:08.391Z,10.62
2022-11-20T16:24:37.080Z,10.65
2022-11-20T16:27:05.934Z,10.68
2022-11-20T16:29:34.871Z,10.73
2022-11-20T16:32:03.874Z,10.68
2022-11-20T16:34:32.878Z,10.67
2022-11-20T16:37:01.542Z,10.75
2022-11-20T16:39:33.429Z,10.78
2022-11-20T16:42:05.228Z,10.91
2022-11-20T16:44:34.926Z,10.90
2022-11-20T16:47:03.626Z,10.75
2022-11-20T16:49:33.260Z,10.74
2022-11-20T16:52:01.829Z,10.84
2022-11-20T16:54:30.475Z,10.94
2022-11-20T16:56:59.158Z,11.10
2022-11-20T16:59:27.776Z,11.22
2022-11-20T17:01:56.484Z,11.26
2022-11-20T17:04:26.833Z,11.19
2022-11-20T17:06:55.546Z,11.19
2022-11-20T17:09:24.165Z,11.24
2022-11-20T17:11:53.158Z,11.20
2022-11-20T17:14:22.669Z,11.34
2022-11-20T17:16:52.908Z,11.30
2022-11-20T17:19:21.539Z,11.33
2022-11-20T17:21:50.249Z,11.45
2022-11-20T17:24:19.044Z,11.46
2022-11-20T17:26:49.290Z,11.32
2022-11-20T17:29:21.749Z,11.33
2022-11-20T17:31:53.412Z,11.24
2022-11-20T17:34:23.920Z,11.16
2022-11-20T17:36:52.987Z,11.10
2022-11-20T17:39:21.698Z,11.27
2022-11-20T17:41:52.022Z,11.29
2022-11-20T17:44:20.585Z,11.32
2022-11-20T17:46:49.195Z,11.41
2022-11-20T17:49:22.768Z,11.29
2022-11-20T17:51:48.141Z,11.26
2022-11-20T17:54:16.762Z,11.19
2022-11-20T17:57:03.420Z,11.21
2022-11-20T17:59:31.949Z,11.31
2022-11-20T18:02:03.654Z,11.27
2022-11-20T18:04:30.907Z,11.30
2022-11-20T18:06:59.657Z,11.16
2022-11-20T18:09:28.462Z,11.07
2022-11-20T18:11:57.173Z,10.96
2022-11-20T18:14:29.106Z,10.92
2022-11-20T18:17:00.335Z,10.85
2022-11-20T18:19:32.940Z,10.78
2022-11-20T18:22:04.294Z,10.78
2022-11-20T18:24:33.905Z,10.97
2022-11-20T18:27:03.599Z,11.03
2022-11-20T18:29:32.625Z,11.10
2022-11-20T18:32:02.127Z,11.05
2022-11-20T18:34:31.656Z,11.17
2022-11-20T18:37:04.674Z,11.12
2022-11-20T18:39:34.044Z,11.12
2022-11-20T18:42:22.272Z,11.26
2022-11-20T18:44:51.867Z,11.29
2022-11-20T18:47:24.270Z,11.19
2022-11-20T18:49:58.940Z,11.25
2022-11-20T18:52:30.664Z,11.22
2022-11-20T18:54:59.333Z,11.20
2022-11-20T18:57:29.809Z,11.14
2022-11-20T19:00:03.619Z,11.22
2022-11-20T19:02:30.868Z,11.12
2022-11-20T19:05:05.076Z,11.12
2022-11-20T19:07:33.644Z,11.21
2022-11-20T19:10:04.169Z,11.29
2022-11-20T19:12:33.231Z,11.16
2022-11-20T19:15:02.887Z,11.08
2022-11-20T19:17:31.423Z,10.99
2022-11-20T19:20:00.356Z,11.12
2022-11-20T19:22:28.992Z,11.14
2022-11-20T19:24:57.481Z,11.17
2022-11-20T19:27:27.541Z,11.14
2022-11-20T19:29:57.755Z,11.10
2022-11-20T19:32:26.360Z,10.99
2022-11-20T19:35:06.969Z,11.04
2022-11-20T19:37:35.071Z,11.02
2022-11-20T19:40:12.820Z,11.04
2022-11-20T19:42:41.931Z,11.03
2022-11-20T19:45:11.867Z,11.13
2022-11-20T19:50:19.869Z,11.27
2022-11-20T19:52:48.476Z,11.27
2022-11-20T19:55:17.285Z,11.19
2022-11-20T19:57:45.835Z,11.24
2022-11-20T20:00:20.787Z,10.93
2022-11-20T20:02:48.269Z,11.10
2022-11-20T20:05:24.074Z,11.11
2022-11-20T20:07:55.683Z,11.16
2022-11-20T20:10:28.159Z,11.10
2022-11-20T20:12:57.546Z,11.14
2022-11-20T20:15:28.501Z,11.16
2022-11-20T20:18:10.902Z,11.15
2022-11-20T20:20:39.426Z,11.26
2022-11-20T20:23:15.751Z,11.22
2022-11-20T20:25:45.882Z,11.07
2022-11-20T20:28:20.970Z,11.09
2022-11-20T20:30:50.148Z,11.21
2022-11-20T20:33:18.691Z,11.16
2022-11-20T20:35:47.269Z,11.07
2022-11-20T20:38:15.756Z,11.03
2022-11-20T20:40:50.885Z,11.19
2022-11-20T20:43:19.494Z,11.24
2022-11-20T20:45:51.510Z,11.10
2022-11-20T20:48:30.524Z,11.18
2022-11-20T20:51:03.052Z,11.11
2022-11-20T20:53:34.383Z,11.12
2022-11-20T20:56:03.726Z,11.14
2022-11-20T20:58:32.541Z,11.11
2022-11-20T21:01:12.722Z,11.17
2022-11-20T21:03:41.638Z,10.65
2022-11-20T21:06:11.640Z,11.19
2022-11-20T21:08:43.540Z,11.01
2022-11-20T21:11:17.760Z,11.15
2022-11-20T21:13:52.888Z,11.08
2022-11-20T21:16:25.132Z,11.03
2022-11-20T21:18:55.949Z,10.80
2022-11-20T21:21:42.758Z,10.73
2022-11-20T21:24:13.046Z,10.72
2022-11-20T21:26:41.609Z,10.64
2022-11-20T21:29:44.467Z,10.50
2022-11-20T21:32:13.061Z,10.55
2022-11-20T21:34:43.425Z,10.62
2022-11-20T21:37:11.940Z,10.61
2022-11-20T21:39:42.189Z,10.54
2022-11-20T21:42:10.783Z,10.55
2022-11-20T21:44:39.408Z,10.57
2022-11-20T21:47:08.616Z,10.53
2022-11-20T21:49:37.201Z,10.48
2022-11-20T21:52:05.931Z,10.54
2022-11-20T21:55:09.123Z,10.50
2022-11-20T21:57:37.310Z,10.42
2022-11-20T22:00:06.689Z,10.44
2022-11-20T22:02:35.390Z,10.25
2022-11-20T22:05:04.031Z,10.15
2022-11-20T22:07:35.056Z,10.08
2022-11-20T22:10:03.039Z,10.03
2022-11-20T22:12:31.737Z,10.07
2022-11-20T22:15:00.277Z,9.98
2022-11-20T22:17:46.755Z,9.95
2022-11-20T22:20:17.176Z,9.95
2022-11-20T22:22:46.132Z,10.00
2022-11-20T22:25:14.862Z,9.91
2022-11-20T22:27:43.367Z,9.94
2022-11-20T22:30:12.609Z,9.93
2022-11-20T22:32:41.137Z,9.98
2022-11-20T22:35:09.803Z,10.02
2022-11-20T22:37:38.334Z,9.98
2022-11-20T22:40:07.913Z,9.99
2022-11-20T22:42:36.503Z,10.02
2022-11-20T22:45:07.307Z,10.05
2022-11-20T22:47:37.385Z,10.12
2022-11-20T22:50:06.248Z,10.06
2022-11-20T22:52:34.975Z,10.04
2022-11-20T22:55:06.183Z,10.24
2022-11-20T22:57:34.988Z,10.26
2022-11-20T23:00:06.559Z,10.30
2022-11-20T23:02:35.729Z,10.13
2022-11-20T23:05:04.460Z,10.22
2022-11-20T23:07:37.071Z,10.23
2022-11-20T23:10:03.402Z,10.27
2022-11-20T23:12:31.952Z,10.25
2022-11-20T23:15:04.994Z,10.37
2022-11-20T23:17:33.622Z,10.31
2022-11-20T23:20:02.281Z,10.37
2022-11-20T23:22:33.073Z,10.20
2022-11-20T23:25:01.879Z,9.95
2022-11-20T23:27:30.499Z,9.87
2022-11-20T23:29:59.545Z,9.86
2022-11-20T23:32:28.365Z,10.03
2022-11-20T23:34:58.010Z,10.15
2022-11-20T23:37:26.585Z,10.29
2022-11-20T23:39:55.192Z,10.22
2022-11-20T23:42:26.104Z,10.15
2022-11-20T23:44:54.660Z,10.18
2022-11-20T23:47:23.251Z,10.06
2022-11-20T23:49:54.298Z,10.11
2022-11-20T23:52:24.583Z,10.09
2022-11-20T23:54:53.199Z,9.94
2022-11-20T23:57:21.897Z,9.87
2022-11-20T23:59:50.463Z,9.82
